Time;durP1;ratioP1;P1;durP2;ratioP2;P2;SDS_P1;SDS_P2;PMS_P1;PMS_P2;Temp;Humidity;BMP_temperature;BMP_pressure;BME280_temperature;BME280_humidity;BME280_pressure;Samples;Min_cycle;Max_cycle;Signal;HPM_P1;HPM_P2
2023/03/02 00:00:44;;;;;;;9.97;5.57;;;-0.80;99.90;;;;;;4881898;29;20218;-85
2023/03/02 00:03:10;;;;;;;8.97;5.80;;;-0.60;99.90;;;;;;4882998;29;20207;-84
2023/03/02 00:05:39;;;;;;;10.70;5.60;;;-0.40;99.90;;;;;;4902568;29;20183;-85
2023/03/02 00:08:06;;;;;;;11.27;5.63;;;-0.30;99.90;;;;;;4885626;29;20203;-85
2023/03/02 00:10:35;;;;;;;10.27;5.90;;;-0.20;99.90;;;;;;4881422;29;20496;-84
2023/03/02 00:13:01;;;;;;;11.47;6.37;;;-0.20;99.90;;;;;;4866948;29;20183;-84
2023/03/02 00:15:27;;;;;;;12.90;6.33;;;0.00;99.90;;;;;;4866971;29;20243;-84
2023/03/02 00:17:53;;;;;;;12.03;6.23;;;0.00;99.90;;;;;;4866623;29;20772;-83
2023/03/02 00:20:18;;;;;;;10.60;6.57;;;0.00;99.90;;;;;;4866421;29;20324;-85
2023/03/02 00:22:45;;;;;;;10.60;6.03;;;0.00;99.90;;;;;;4866651;29;20192;-84
2023/03/02 00:25:13;;;;;;;11.87;6.83;;;0.00;99.90;;;;;;4866664;29;20251;-84
2023/03/02 00:27:39;;;;;;;11.43;6.73;;;0.00;99.90;;;;;;4867003;29;20636;-84
2023/03/02 00:30:05;;;;;;;11.67;6.47;;;-0.10;99.90;;;;;;4866521;29;20188;-84
2023/03/02 00:32:31;;;;;;;12.87;6.73;;;-0.10;99.90;;;;;;4866723;29;20643;-85
2023/03/02 00:34:57;;;;;;;13.60;6.67;;;-0.10;99.90;;;;;;4866944;29;20271;-85
2023/03/02 00:37:24;;;;;;;11.90;6.83;;;-0.20;99.90;;;;;;4883152;29;20180;-85
2023/03/02 00:39:53;;;;;;;11.07;6.77;;;-0.20;99.90;;;;;;4866584;29;20191;-84
2023/03/02 00:42:20;;;;;;;12.13;6.63;;;-0.20;99.90;;;;;;4866463;29;20531;-84
2023/03/02 00:44:46;;;;;;;10.23;5.93;;;-0.20;99.90;;;;;;4866358;29;20234;-85
2023/03/02 00:47:12;;;;;;;9.70;6.13;;;-0.30;99.90;;;;;;4866368;29;20179;-85
2023/03/02 00:49:39;;;;;;;10.97;6.13;;;-0.30;99.90;;;;;;4865940;29;20243;-84
2023/03/02 00:52:05;;;;;;;11.37;6.07;;;-0.40;99.90;;;;;;4866514;29;20186;-85
2023/03/02 00:54:31;;;;;;;8.83;6.27;;;-0.30;99.90;;;;;;4866582;29;20282;-85
2023/03/02 00:56:57;;;;;;;10.93;6.50;;;-0.40;99.90;;;;;;4866040;29;20184;-85
2023/03/02 00:59:25;;;;;;;9.27;5.33;;;-0.40;99.90;;;;;;4866120;29;20251;-85
2023/03/02 01:01:59;;;;;;;9.33;5.47;;;-0.50;99.90;;;;;;4883020;29;20184;-85
2023/03/02 01:04:33;;;;;;;8.47;5.00;;;-0.60;99.90;;;;;;4866062;29;20223;-85
2023/03/02 01:07:03;;;;;;;9.03;4.87;;;-0.70;99.90;;;;;;4866048;29;20499;-85
2023/03/02 01:09:30;;;;;;;9.50;5.20;;;-0.80;99.90;;;;;;4882208;29;20180;-86
2023/03/02 01:11:56;;;;;;;7.53;5.10;;;-0.90;99.90;;;;;;4881072;29;20179;-85
2023/03/02 01:14:22;;;;;;;8.20;5.20;;;-1.10;99.90;;;;;;4883441;29;20180;-85
2023/03/02 01:16:49;;;;;;;9.10;5.30;;;-1.10;99.90;;;;;;4884594;29;20217;-84
2023/03/02 01:19:15;;;;;;;9.07;5.40;;;-1.20;99.90;;;;;;4884181;29;20231;-84
2023/03/02 01:21:43;;;;;;;10.17;5.67;;;-1.20;99.90;;;;;;4901153;29;20176;-84
2023/03/02 01:24:10;;;;;;;10.20;5.63;;;-1.30;99.90;;;;;;4884034;29;20215;-84
2023/03/02 01:26:36;;;;;;;12.60;5.63;;;-1.30;99.90;;;;;;4884028;29;20183;-85
2023/03/02 01:29:03;;;;;;;9.23;5.07;;;-1.30;99.90;;;;;;4883541;29;20615;-85
2023/03/02 01:31:29;;;;;;;9.20;5.67;;;-1.20;99.90;;;;;;4899538;29;20190;-84
2023/03/02 01:33:55;;;;;;;8.40;4.97;;;-1.20;99.90;;;;;;4899914;29;20179;-85
2023/03/02 01:36:22;;;;;;;10.60;5.83;;;-1.10;99.90;;;;;;4884249;29;20312;-85
2023/03/02 01:38:49;;;;;;;10.40;5.97;;;-1.00;99.90;;;;;;4899777;29;20198;-85
2023/03/02 01:41:16;;;;;;;12.30;6.23;;;-1.00;99.90;;;;;;4899605;29;20521;-85
2023/03/02 01:43:42;;;;;;;11.07;6.43;;;-1.00;99.90;;;;;;4883758;29;20301;-85
2023/03/02 01:46:24;;;;;;;11.50;6.67;;;-0.90;99.90;;;;;;4883991;29;20278;-84
2023/03/02 01:49:10;;;;;;;12.57;7.27;;;-1.00;99.90;;;;;;4899390;29;20231;-85
2023/03/02 01:51:42;;;;;;;24.17;9.70;;;-1.00;99.90;;;;;;4899246;29;20241;-85
2023/03/02 01:54:16;;;;;;;20.23;10.50;;;-1.00;99.90;;;;;;4899324;29;20629;-85
2023/03/02 01:56:44;;;;;;;23.07;11.70;;;-1.00;99.90;;;;;;4883716;29;20183;-85
2023/03/02 01:59:16;;;;;;;32.73;13.37;;;-1.00;99.90;;;;;;4883351;29;20202;-85
2023/03/02 02:01:49;;;;;;;62.40;12.90;;;-0.90;99.90;;;;;;4883690;29;20180;-84
2023/03/02 02:04:16;;;;;;;50.93;14.00;;;-0.80;99.90;;;;;;4883569;29;20218;-84
2023/03/02 02:06:51;;;;;;;48.33;13.63;;;-0.80;99.90;;;;;;4883610;29;20187;-85
2023/03/02 02:09:19;;;;;;;60.63;14.93;;;-0.70;99.90;;;;;;4883228;29;20303;-84
2023/03/02 02:11:45;;;;;;;83.50;15.37;;;-0.70;99.90;;;;;;4879749;29;20184;-84
2023/03/02 02:14:11;;;;;;;62.20;15.60;;;-0.60;99.90;;;;;;4864300;29;20188;-85
2023/03/02 02:16:37;;;;;;;68.90;16.33;;;-0.60;99.90;;;;;;4864735;29;20608;-84
2023/03/02 02:19:11;;;;;;;45.63;16.17;;;-0.50;99.90;;;;;;4864703;29;20514;-84
2023/03/02 02:21:38;;;;;;;77.00;17.87;;;-0.50;99.90;;;;;;4864397;29;20236;-84
2023/03/02 02:24:20;;;;;;;73.30;17.30;;;-0.50;99.90;;;;;;4864574;29;20326;-84
2023/03/02 02:26:49;;;;;;;42.97;16.83;;;-0.50;99.90;;;;;;4864266;29;20211;-84
2023/03/02 02:29:21;;;;;;;48.33;16.97;;;-0.40;99.90;;;;;;4864157;29;20550;-83
2023/03/02 02:32:11;;;;;;;48.73;17.77;;;-0.30;99.90;;;;;;4864692;29;20184;-84
2023/03/02 02:34:55;;;;;;;79.40;18.43;;;-0.30;99.90;;;;;;4864365;29;20244;-84
2023/03/02 02:37:39;;;;;;;64.30;17.87;;;-0.40;99.90;;;;;;4864251;29;20184;-84
2023/03/02 02:40:11;;;;;;;77.97;18.20;;;-0.30;99.90;;;;;;4866385;29;20180;-84
2023/03/02 02:42:42;;;;;;;54.37;17.10;;;-0.30;99.90;;;;;;4882733;29;20251;-84
2023/03/02 02:45:19;;;;;;;70.80;18.33;;;-0.30;99.90;;;;;;4882687;29;20219;-83
2023/03/02 02:47:46;;;;;;;57.73;18.60;;;-0.30;99.90;;;;;;4882441;29;20203;-84
2023/03/02 02:50:22;;;;;;;104.47;17.80;;;-0.30;99.90;;;;;;4882552;29;20195;-84
2023/03/02 02:53:11;;;;;;;64.30;17.77;;;-0.30;99.90;;;;;;4882473;29;20198;-84
2023/03/02 02:55:38;;;;;;;53.43;16.57;;;-0.30;99.90;;;;;;4882014;29;20235;-84
2023/03/02 02:58:30;;;;;;;85.37;17.73;;;-0.30;99.90;;;;;;4882150;29;20213;-84
2023/03/02 03:00:59;;;;;;;47.50;17.03;;;-0.20;99.90;;;;;;4872236;29;20202;-83
2023/03/02 03:03:32;;;;;;;42.57;17.53;;;-0.30;99.90;;;;;;4882179;29;20225;-83
2023/03/02 03:06:00;;;;;;;41.53;18.33;;;-0.20;99.90;;;;;;4882494;29;20521;-84
2023/03/02 03:08:44;;;;;;;64.20;17.33;;;-0.20;99.90;;;;;;4882363;29;20187;-84
2023/03/02 03:11:14;;;;;;;130.20;19.30;;;-0.20;99.90;;;;;;4878930;29;20229;-84
2023/03/02 03:13:42;;;;;;;69.83;19.73;;;-0.20;99.90;;;;;;4872600;29;20275;-83
2023/03/02 03:16:12;;;;;;;60.03;19.50;;;-0.20;99.90;;;;;;4863706;29;20635;-83
2023/03/02 03:18:41;;;;;;;61.33;19.10;;;-0.20;99.90;;;;;;4863604;29;20262;-84
2023/03/02 03:21:07;;;;;;;98.57;18.57;;;-0.20;99.90;;;;;;4863991;29;20531;-84
2023/03/02 03:23:36;;;;;;;104.07;19.80;;;-0.20;99.90;;;;;;4863519;29;20223;-83
2023/03/02 03:26:06;;;;;;;75.30;20.03;;;-0.10;99.90;;;;;;4863528;29;20191;-83
2023/03/02 03:28:32;;;;;;;76.93;19.97;;;-0.10;99.90;;;;;;4863233;29;20235;-84
2023/03/02 03:30:58;;;;;;;55.00;20.17;;;-0.20;99.90;;;;;;4879808;29;20254;-84
2023/03/02 03:33:24;;;;;;;85.27;20.03;;;-0.20;99.90;;;;;;4863535;29;20687;-82
2023/03/02 03:35:50;;;;;;;65.27;17.50;;;-0.10;99.90;;;;;;4863547;29;20235;-83
2023/03/02 03:38:17;;;;;;;77.03;19.83;;;-0.10;99.90;;;;;;4881698;29;20183;-83
2023/03/02 03:40:43;;;;;;;76.60;19.73;;;-0.20;99.90;;;;;;4867320;29;20187;-84
2023/03/02 03:43:09;;;;;;;74.83;19.57;;;-0.10;99.90;;;;;;4875230;29;20662;-84
2023/03/02 03:45:34;;;;;;;68.00;19.07;;;-0.10;99.90;;;;;;4902509;29;20182;-83
2023/03/02 03:48:00;;;;;;;62.70;17.97;;;-0.20;99.90;;;;;;4900904;29;20274;-84
2023/03/02 03:50:26;;;;;;;50.83;17.33;;;-0.20;99.90;;;;;;4885651;29;20180;-84
2023/03/02 03:52:52;;;;;;;57.87;17.30;;;-0.20;99.90;;;;;;4885932;29;20274;-83
2023/03/02 03:55:18;;;;;;;40.17;17.60;;;-0.10;99.90;;;;;;4885502;29;20187;-84
2023/03/02 03:57:44;;;;;;;63.63;18.53;;;-0.20;99.90;;;;;;4885470;29;20175;-83
2023/03/02 04:00:16;;;;;;;43.63;18.57;;;-0.20;99.90;;;;;;4885219;29;20198;-83
2023/03/02 04:02:42;;;;;;;62.10;17.50;;;-0.20;99.90;;;;;;4885171;29;20315;-84
2023/03/02 04:05:08;;;;;;;45.20;17.47;;;-0.20;99.90;;;;;;4885484;29;20218;-84
2023/03/02 04:07:36;;;;;;;59.63;17.80;;;-0.20;99.90;;;;;;4885301;29;20183;-84
2023/03/02 04:10:03;;;;;;;62.23;18.83;;;-0.20;99.90;;;;;;4901937;29;20187;-83
2023/03/02 04:12:31;;;;;;;50.23;17.20;;;-0.10;99.90;;;;;;4882227;29;20188;-87
2023/03/02 04:14:57;;;;;;;95.27;18.77;;;-0.20;99.90;;;;;;4866423;29;20630;-84
2023/03/02 04:17:22;;;;;;;62.47;17.00;;;-0.10;99.90;;;;;;4866722;29;20184;-85
2023/03/02 04:19:48;;;;;;;82.43;17.57;;;-0.10;99.90;;;;;;4866468;29;20274;-85
2023/03/02 04:22:16;;;;;;;55.27;17.53;;;-0.20;99.90;;;;;;4866590;29;20184;-84
2023/03/02 04:24:42;;;;;;;61.53;18.27;;;-0.20;99.90;;;;;;4866547;29;20212;-84
2023/03/02 04:27:08;;;;;;;59.30;16.93;;;-0.20;99.90;;;;;;4866450;29;20256;-84
2023/03/02 04:29:35;;;;;;;68.40;18.43;;;-0.20;99.90;;;;;;4882762;29;20558;-84
2023/03/02 04:32:02;;;;;;;66.47;17.73;;;-0.20;99.90;;;;;;4866455;29;20180;-84
2023/03/02 04:34:27;;;;;;;54.13;18.77;;;-0.20;99.90;;;;;;4883302;29;20180;-84
2023/03/02 04:36:53;;;;;;;39.90;18.57;;;-0.20;99.90;;;;;;4866440;29;20180;-84
2023/03/02 04:39:19;;;;;;;42.83;18.00;;;-0.10;99.90;;;;;;4866242;29;20537;-85
2023/03/02 04:41:47;;;;;;;46.10;17.27;;;-0.20;99.90;;;;;;4866185;29;20192;-84
2023/03/02 04:44:14;;;;;;;56.63;18.33;;;-0.20;99.90;;;;;;4879315;29;20219;-84
2023/03/02 04:46:40;;;;;;;55.17;19.50;;;-0.20;99.90;;;;;;4866203;29;20500;-85
2023/03/02 04:49:06;;;;;;;34.43;17.50;;;-0.10;99.90;;;;;;4865857;29;20759;-84
2023/03/02 04:51:44;;;;;;;109.00;18.30;;;-0.20;99.90;;;;;;4865832;29;20219;-84
2023/03/02 04:54:16;;;;;;;66.67;18.30;;;-0.10;99.90;;;;;;4865700;29;20175;-84
2023/03/02 04:56:42;;;;;;;47.57;17.87;;;-0.20;99.90;;;;;;4882445;29;20173;-83
2023/03/02 04:59:08;;;;;;;51.27;18.27;;;-0.20;99.90;;;;;;4865708;29;20410;-82
2023/03/02 05:01:34;;;;;;;46.43;18.07;;;-0.20;99.90;;;;;;4865550;29;20620;-84
2023/03/02 05:03:59;;;;;;;43.80;17.57;;;-0.20;99.90;;;;;;4865759;29;20212;-83
2023/03/02 05:06:25;;;;;;;55.50;19.30;;;-0.20;99.90;;;;;;4865671;29;20525;-84
2023/03/02 05:08:51;;;;;;;64.93;18.97;;;-0.20;99.90;;;;;;4882357;29;20585;-83
2023/03/02 05:11:21;;;;;;;70.47;18.70;;;-0.20;99.90;;;;;;4882212;29;20199;-83
2023/03/02 05:13:51;;;;;;;95.53;18.73;;;-0.20;99.90;;;;;;4878439;29;20578;-84
2023/03/02 05:16:18;;;;;;;55.60;18.60;;;-0.20;99.90;;;;;;4884239;29;20289;-83
2023/03/02 05:18:44;;;;;;;104.27;18.63;;;-0.30;99.90;;;;;;4884160;29;20211;-84
2023/03/02 05:21:10;;;;;;;44.27;17.33;;;-0.30;99.90;;;;;;4883752;29;20926;-83
2023/03/02 05:23:36;;;;;;;82.13;18.27;;;-0.30;99.90;;;;;;4883743;29;20230;-83
2023/03/02 05:26:02;;;;;;;79.90;17.70;;;-0.30;99.90;;;;;;4884043;29;20183;-83
2023/03/02 05:28:27;;;;;;;69.27;19.67;;;-0.30;99.90;;;;;;4883736;29;20603;-84
2023/03/02 05:30:53;;;;;;;44.80;18.23;;;-0.30;99.90;;;;;;4879738;29;20232;-83
2023/03/02 05:33:19;;;;;;;53.60;17.87;;;-0.30;99.90;;;;;;4865080;29;20310;-83
2023/03/02 05:35:46;;;;;;;56.97;17.83;;;-0.30;99.90;;;;;;4865053;29;20179;-83
2023/03/02 05:38:12;;;;;;;63.37;17.17;;;-0.30;99.90;;;;;;4865052;29;20227;-84
2023/03/02 05:40:41;;;;;;;49.20;18.33;;;-0.40;99.90;;;;;;4880280;29;20222;-83
2023/03/02 05:43:07;;;;;;;61.73;16.57;;;-0.30;99.90;;;;;;4879214;29;20239;-84
2023/03/02 05:45:36;;;;;;;88.37;20.63;;;-0.30;99.90;;;;;;4880628;29;20278;-83
2023/03/02 05:48:03;;;;;;;72.00;19.60;;;-0.30;99.90;;;;;;4864533;29;20702;-83
2023/03/02 05:50:29;;;;;;;72.97;19.43;;;-0.30;99.90;;;;;;4864756;29;20247;-83
2023/03/02 05:52:54;;;;;;;77.83;22.07;;;-0.30;99.90;;;;;;4872336;29;20187;-83
2023/03/02 05:55:20;;;;;;;70.90;18.03;;;-0.30;99.90;;;;;;4880006;29;20267;-83
2023/03/02 05:57:48;;;;;;;68.57;18.10;;;-0.30;99.90;;;;;;4866686;29;20626;-84
2023/03/02 06:00:14;;;;;;;71.10;18.40;;;-0.40;99.90;;;;;;4881797;29;20195;-82
2023/03/02 06:02:41;;;;;;;53.90;18.63;;;-0.30;99.90;;;;;;4899637;29;20627;-84
2023/03/02 06:05:13;;;;;;;46.53;19.97;;;-0.30;99.90;;;;;;4899851;29;20298;-83
2023/03/02 06:07:38;;;;;;;58.27;15.90;;;-0.30;99.90;;;;;;4883202;29;20195;-83
2023/03/02 06:10:05;;;;;;;50.83;15.73;;;-0.40;99.90;;;;;;4882958;29;20191;-84
2023/03/02 06:12:31;;;;;;;57.13;17.17;;;-0.30;99.90;;;;;;4883006;29;20183;-84
2023/03/02 06:14:58;;;;;;;87.33;17.93;;;-0.30;99.90;;;;;;4882850;29;20525;-83
2023/03/02 06:17:24;;;;;;;38.10;15.43;;;-0.40;99.90;;;;;;4883131;29;20179;-84
2023/03/02 06:19:50;;;;;;;41.30;16.30;;;-0.40;99.90;;;;;;4882979;29;20251;-83
2023/03/02 06:22:16;;;;;;;55.63;19.20;;;-0.40;99.90;;;;;;4898493;29;20607;-84
2023/03/02 06:24:42;;;;;;;37.30;15.43;;;-0.40;99.90;;;;;;4899635;29;20218;-84
2023/03/02 06:27:07;;;;;;;35.20;14.77;;;-0.30;99.90;;;;;;4882869;29;20646;-84
2023/03/02 06:29:33;;;;;;;59.47;14.07;;;-0.30;99.90;;;;;;4899289;29;20186;-83
2023/03/02 06:31:59;;;;;;;35.60;13.60;;;-0.30;99.90;;;;;;4882897;29;20524;-84
2023/03/02 06:34:24;;;;;;;88.87;14.57;;;-0.30;99.90;;;;;;4899819;29;20258;-84
2023/03/02 06:36:50;;;;;;;68.77;14.57;;;-0.30;99.90;;;;;;4883008;29;20266;-85
2023/03/02 06:39:15;;;;;;;42.80;15.27;;;-0.30;99.90;;;;;;4882866;29;20242;-84
2023/03/02 06:41:42;;;;;;;63.77;15.87;;;-0.30;99.90;;;;;;4899565;29;20171;-85
2023/03/02 06:44:10;;;;;;;76.80;15.70;;;-0.30;99.90;;;;;;4879668;29;20306;-84
2023/03/02 06:46:36;;;;;;;37.13;14.77;;;-0.30;99.90;;;;;;4880853;29;20172;-85
2023/03/02 06:49:02;;;;;;;85.20;15.23;;;-0.40;99.90;;;;;;4863663;29;20235;-84
2023/03/02 06:51:28;;;;;;;41.37;13.53;;;-0.30;99.90;;;;;;4863864;29;20517;-84
2023/03/02 06:53:53;;;;;;;21.53;13.03;;;-0.30;99.90;;;;;;4880587;29;20179;-83
2023/03/02 06:56:19;;;;;;;21.07;12.60;;;-0.30;99.90;;;;;;4864112;29;20184;-85
2023/03/02 06:58:45;;;;;;;37.43;13.47;;;-0.30;99.90;;;;;;4864107;29;20262;-83
2023/03/02 07:01:10;;;;;;;31.93;13.20;;;-0.30;99.90;;;;;;4863640;29;20188;-84
2023/03/02 07:03:37;;;;;;;55.47;14.80;;;-0.30;99.90;;;;;;4863681;29;20239;-84
2023/03/02 07:06:03;;;;;;;46.43;15.07;;;-0.20;99.90;;;;;;4863832;29;20187;-84
2023/03/02 07:08:29;;;;;;;31.57;15.30;;;-0.20;99.90;;;;;;4863741;29;20188;-84
2023/03/02 07:10:55;;;;;;;58.93;15.53;;;-0.20;99.90;;;;;;4863440;29;20525;-84
2023/03/02 07:13:23;;;;;;;55.60;15.67;;;-0.20;99.90;;;;;;4868775;29;20192;-83
2023/03/02 07:15:49;;;;;;;46.80;13.87;;;-0.20;99.90;;;;;;4863783;29;20567;-83
2023/03/02 07:18:14;;;;;;;75.10;13.50;;;-0.20;99.90;;;;;;4863652;29;20187;-83
2023/03/02 07:20:40;;;;;;;45.80;13.70;;;-0.20;99.90;;;;;;4863302;29;20278;-83
2023/03/02 07:23:06;;;;;;;65.03;13.83;;;-0.30;99.90;;;;;;4863389;29;20213;-83
2023/03/02 07:25:32;;;;;;;57.90;14.50;;;-0.30;99.90;;;;;;4863544;29;20187;-82
2023/03/02 07:27:58;;;;;;;73.63;15.30;;;-0.20;99.90;;;;;;4863326;29;20180;-83
2023/03/02 07:30:24;;;;;;;47.73;15.53;;;-0.20;99.90;;;;;;4862823;29;20222;-83
2023/03/02 07:32:50;;;;;;;53.00;15.90;;;-0.20;99.90;;;;;;4863208;29;20187;-83
2023/03/02 07:35:16;;;;;;;45.13;14.70;;;-0.20;99.90;;;;;;4863451;29;20172;-83
2023/03/02 07:37:42;;;;;;;58.97;15.60;;;-0.10;99.90;;;;;;4863312;29;20188;-83
2023/03/02 07:40:13;;;;;;;53.00;16.97;;;-0.10;99.90;;;;;;4863597;29;20223;-83
2023/03/02 07:42:39;;;;;;;44.67;15.60;;;-0.20;99.90;;;;;;4866750;29;20212;-82
2023/03/02 07:45:05;;;;;;;65.33;17.50;;;-0.10;99.90;;;;;;4881415;29;20215;-83
2023/03/02 07:47:31;;;;;;;52.73;16.97;;;-0.20;99.90;;;;;;4881432;29;20611;-83
2023/03/02 07:49:57;;;;;;;85.70;17.17;;;-0.20;99.90;;;;;;4881524;29;20230;-84
2023/03/02 07:52:23;;;;;;;63.83;16.77;;;-0.10;99.90;;;;;;4875793;29;20607;-83
2023/03/02 07:54:49;;;;;;;44.83;17.10;;;-0.10;99.90;;;;;;4881384;29;20222;-81
2023/03/02 07:57:15;;;;;;;46.83;16.47;;;-0.10;99.90;;;;;;4898014;29;20171;-83
2023/03/02 07:59:44;;;;;;;63.20;16.13;;;0.00;99.90;;;;;;4881039;29;20207;-83
2023/03/02 08:02:15;;;;;;;57.17;17.20;;;0.00;99.90;;;;;;4897052;29;20283;-83
2023/03/02 08:04:41;;;;;;;52.13;17.37;;;0.10;99.90;;;;;;4881287;29;20246;-84
2023/03/02 08:07:07;;;;;;;39.07;16.23;;;0.10;99.90;;;;;;4897346;29;20180;-84
2023/03/02 08:09:32;;;;;;;46.37;17.00;;;0.10;99.90;;;;;;4896834;29;20507;-82
2023/03/02 08:11:58;;;;;;;58.10;17.63;;;0.10;99.90;;;;;;4881102;29;20282;-84
2023/03/02 08:14:24;;;;;;;43.43;16.67;;;0.10;99.90;;;;;;4880014;29;20650;-82
2023/03/02 08:16:51;;;;;;;60.30;17.87;;;0.10;99.90;;;;;;4867626;29;20235;-83
2023/03/02 08:19:17;;;;;;;31.10;15.70;;;0.10;99.90;;;;;;4862799;29;20542;-83
2023/03/02 08:21:43;;;;;;;36.97;15.47;;;0.10;99.90;;;;;;4862855;29;20185;-82
2023/03/02 08:24:10;;;;;;;69.00;14.23;;;0.10;99.90;;;;;;4880413;29;20222;-83
2023/03/02 08:26:36;;;;;;;39.20;14.77;;;0.10;99.90;;;;;;4866269;29;20535;-83
2023/03/02 08:29:02;;;;;;;41.10;12.80;;;0.10;99.90;;;;;;4882709;29;20188;-83
2023/03/02 08:31:28;;;;;;;24.57;13.23;;;0.20;99.90;;;;;;4865637;29;20310;-84
2023/03/02 08:33:54;;;;;;;33.03;12.97;;;0.20;99.90;;;;;;4882982;29;20267;-83
2023/03/02 08:36:20;;;;;;;37.90;12.87;;;0.20;99.90;;;;;;4866264;29;20272;-84
2023/03/02 08:38:47;;;;;;;19.33;11.60;;;0.20;99.90;;;;;;4866033;29;20268;-83
2023/03/02 08:41:18;;;;;;;38.37;12.30;;;0.30;99.90;;;;;;4865719;29;20188;-82
2023/03/02 08:43:45;;;;;;;38.27;15.73;;;0.30;99.90;;;;;;4887106;29;20246;-82
2023/03/02 08:46:12;;;;;;;32.50;13.50;;;0.20;99.90;;;;;;4884007;29;20694;-81
2023/03/02 08:48:38;;;;;;;58.37;12.23;;;0.10;99.90;;;;;;4884136;29;20259;-83
2023/03/02 08:51:11;;;;;;;23.13;12.13;;;0.10;99.90;;;;;;4884439;29;20262;-82
2023/03/02 08:53:40;;;;;;;31.93;14.37;;;0.20;99.90;;;;;;4901066;29;20191;-82
2023/03/02 08:56:15;;;;;;;31.97;13.83;;;0.10;99.90;;;;;;4884384;29;20203;-82
2023/03/02 08:58:40;;;;;;;21.70;12.87;;;0.20;99.90;;;;;;4884521;29;20618;-84
2023/03/02 09:01:13;;;;;;;27.67;13.20;;;0.20;99.90;;;;;;4900818;29;20192;-83
2023/03/02 09:03:39;;;;;;;31.00;12.27;;;0.20;99.90;;;;;;4884171;29;20222;-84
2023/03/02 09:06:05;;;;;;;29.33;12.30;;;0.20;99.90;;;;;;4901102;29;20167;-83
2023/03/02 09:08:30;;;;;;;28.97;10.53;;;0.30;99.90;;;;;;4883804;29;20187;-82
2023/03/02 09:10:56;;;;;;;31.60;10.83;;;0.20;99.90;;;;;;4884117;29;20607;-83
2023/03/02 09:13:22;;;;;;;37.83;10.67;;;0.30;99.90;;;;;;4900224;29;20186;-82
2023/03/02 09:15:47;;;;;;;28.03;10.27;;;0.30;99.90;;;;;;4882984;29;20179;-81
2023/03/02 09:18:13;;;;;;;29.57;10.23;;;0.30;99.90;;;;;;4900712;29;20184;-82
2023/03/02 09:20:39;;;;;;;49.60;10.63;;;0.30;99.90;;;;;;4883502;29;20637;-81
2023/03/02 09:23:04;;;;;;;23.73;11.77;;;0.40;99.90;;;;;;4883585;29;20183;-81
2023/03/02 09:25:30;;;;;;;28.97;13.57;;;0.30;99.90;;;;;;4900430;29;20507;-81
2023/03/02 09:27:56;;;;;;;51.50;16.77;;;0.40;99.90;;;;;;4900419;29;20183;-81
2023/03/02 09:30:22;;;;;;;40.93;18.30;;;0.40;99.90;;;;;;4883414;29;20678;-84
2023/03/02 09:32:48;;;;;;;48.17;19.60;;;0.50;99.90;;;;;;4883558;29;20201;-81
2023/03/02 09:35:13;;;;;;;59.87;19.43;;;0.50;99.90;;;;;;4882641;29;20206;-80
2023/03/02 09:37:39;;;;;;;50.60;18.33;;;0.50;99.90;;;;;;4883385;29;20521;-80
2023/03/02 09:40:17;;;;;;;43.63;20.03;;;0.50;99.90;;;;;;4899846;29;20190;-80
2023/03/02 09:42:56;;;;;;;38.17;19.33;;;0.50;99.90;;;;;;4880021;29;20667;-79
2023/03/02 09:45:59;;;;;;;45.13;19.23;;;0.50;99.90;;;;;;4881263;29;20674;-80
2023/03/02 09:48:44;;;;;;;40.73;16.93;;;0.60;99.90;;;;;;4880827;29;20235;-80
2023/03/02 09:51:43;;;;;;;52.10;16.40;;;0.60;99.90;;;;;;4864634;29;20259;-80
2023/03/02 09:54:17;;;;;;;30.77;14.23;;;0.60;99.90;;;;;;4881330;29;20191;-80
2023/03/02 09:56:49;;;;;;;45.70;16.43;;;0.70;99.90;;;;;;4882379;29;20196;-80
2023/03/02 09:59:28;;;;;;;39.70;16.00;;;0.60;99.90;;;;;;4864807;29;20191;-80
2023/03/02 10:02:09;;;;;;;50.03;17.60;;;0.60;99.90;;;;;;4864230;29;20179;-81
2023/03/02 10:04:41;;;;;;;39.20;16.63;;;0.60;99.90;;;;;;4865285;29;20279;-80
2023/03/02 10:07:14;;;;;;;61.00;16.97;;;0.70;99.90;;;;;;4881549;29;20192;-81
2023/03/02 10:09:41;;;;;;;47.83;18.30;;;0.70;99.90;;;;;;4881013;29;20174;-82
2023/03/02 10:12:40;;;;;;;45.47;19.93;;;0.70;99.90;;;;;;4881934;29;20530;-80
2023/03/02 10:15:36;;;;;;;46.57;19.77;;;0.70;99.90;;;;;;4881389;29;20189;-79
2023/03/02 10:18:01;;;;;;;43.10;20.10;;;0.60;99.90;;;;;;4880807;29;20255;-80
2023/03/02 10:21:02;;;;;;;54.07;20.97;;;0.60;99.90;;;;;;4881198;29;20278;-80
2023/03/02 10:23:37;;;;;;;53.43;22.37;;;0.70;99.90;;;;;;4833145;29;20668;-80
2023/03/02 10:26:05;;;;;;;51.93;21.90;;;0.70;99.90;;;;;;4881007;29;20187;-80
2023/03/02 10:28:37;;;;;;;51.07;23.50;;;0.70;99.90;;;;;;4880751;29;20563;-79
2023/03/02 10:31:14;;;;;;;79.63;35.30;;;0.70;99.90;;;;;;4880808;29;20230;-79
2023/03/02 10:33:40;;;;;;;49.97;23.07;;;0.70;99.90;;;;;;4863796;29;20180;-80
2023/03/02 10:36:27;;;;;;;54.27;22.60;;;0.70;99.90;;;;;;4863870;29;20616;-80
2023/03/02 10:38:55;;;;;;;45.53;21.10;;;0.70;99.90;;;;;;4880303;29;20504;-79
2023/03/02 10:41:34;;;;;;;75.63;22.27;;;0.70;99.90;;;;;;4880250;29;20176;-80
2023/03/02 10:44:13;;;;;;;65.93;23.00;;;0.80;99.90;;;;;;4895376;29;20210;-79
2023/03/02 10:46:44;;;;;;;78.70;27.10;;;0.90;99.90;;;;;;4896034;29;20173;-79
2023/03/02 10:49:38;;;;;;;54.40;24.37;;;0.90;99.90;;;;;;4863314;29;20239;-80
2023/03/02 10:52:03;;;;;;;55.97;21.83;;;0.90;99.90;;;;;;4863788;29;20619;-80
2023/03/02 10:54:32;;;;;;;54.43;23.20;;;1.00;99.90;;;;;;4875894;29;20256;-80
2023/03/02 10:57:04;;;;;;;52.43;23.50;;;1.00;99.90;;;;;;4898686;29;20206;-79
2023/03/02 10:59:44;;;;;;;57.03;23.23;;;1.00;99.90;;;;;;4881526;29;20191;-79
2023/03/02 11:02:22;;;;;;;81.83;24.37;;;1.10;99.90;;;;;;4891723;29;20202;-80
2023/03/02 11:05:17;;;;;;;52.10;24.77;;;1.00;99.90;;;;;;4879036;29;20740;-79
2023/03/02 11:07:54;;;;;;;53.53;22.30;;;1.00;99.90;;;;;;4863176;29;20218;-80
2023/03/02 11:10:23;;;;;;;54.47;23.53;;;1.00;99.90;;;;;;4870979;29;20197;-80
2023/03/02 11:12:51;;;;;;;54.10;22.97;;;1.10;99.90;;;;;;4885579;29;20237;-80
2023/03/02 11:15:20;;;;;;;48.43;21.77;;;1.10;99.90;;;;;;4898785;29;20290;-80
2023/03/02 11:17:59;;;;;;;41.93;23.27;;;1.20;99.90;;;;;;4865662;29;20215;-79
2023/03/02 11:20:41;;;;;;;45.90;23.53;;;1.20;99.90;;;;;;4880012;29;20690;-81
2023/03/02 11:23:33;;;;;;;48.00;23.97;;;1.10;99.90;;;;;;4863336;29;20183;-79
2023/03/02 11:26:06;;;;;;;40.70;22.40;;;1.10;99.90;;;;;;4863926;29;20199;-79
2023/03/02 11:28:44;;;;;;;38.77;20.70;;;1.10;99.90;;;;;;4863010;29;20203;-80
2023/03/02 11:31:43;;;;;;;42.77;23.30;;;1.20;99.90;;;;;;4897277;29;20184;-80
2023/03/02 11:34:20;;;;;;;45.43;22.90;;;1.30;99.90;;;;;;4887923;29;20188;-80
2023/03/02 11:36:57;;;;;;;51.47;23.17;;;1.30;99.90;;;;;;4898393;29;20184;-79
2023/03/02 11:39:29;;;;;;;45.80;24.87;;;1.40;99.90;;;;;;4881585;29;20209;-81
2023/03/02 11:41:55;;;;;;;47.23;21.97;;;1.40;99.90;;;;;;4898083;29;20530;-79
2023/03/02 11:44:23;;;;;;;50.30;24.43;;;1.50;99.90;;;;;;4884001;29;20663;-79
2023/03/02 11:46:55;;;;;;;41.97;23.33;;;1.60;99.90;;;;;;4878809;29;20611;-79
2023/03/02 11:49:42;;;;;;;52.90;25.80;;;1.70;99.90;;;;;;4862446;29;20254;-80
2023/03/02 11:52:19;;;;;;;46.03;24.37;;;1.70;99.90;;;;;;4879725;29;20191;-80
2023/03/02 11:54:51;;;;;;;50.93;25.53;;;1.70;99.90;;;;;;4879710;29;20178;-80
2023/03/02 11:57:24;;;;;;;43.00;22.63;;;1.70;99.90;;;;;;4863072;29;20243;-80
2023/03/02 11:59:51;;;;;;;53.47;26.03;;;1.70;99.90;;;;;;4888972;29;20198;-80
2023/03/02 12:02:17;;;;;;;49.53;26.70;;;1.80;99.90;;;;;;4900784;29;20507;-80
2023/03/02 12:04:43;;;;;;;51.83;26.83;;;1.70;99.90;;;;;;4893941;29;20215;-80
2023/03/02 12:07:21;;;;;;;46.37;25.07;;;1.60;99.90;;;;;;4883264;29;20180;-79
2023/03/02 12:10:05;;;;;;;44.83;25.03;;;1.70;99.90;;;;;;4867512;29;20222;-79
2023/03/02 12:12:47;;;;;;;47.20;24.60;;;1.70;99.90;;;;;;4866990;29;20250;-79
2023/03/02 12:15:37;;;;;;;47.93;24.63;;;1.70;99.90;;;;;;4882986;29;20193;-80
2023/03/02 12:18:19;;;;;;;41.43;23.27;;;1.70;99.90;;;;;;4866390;29;20228;-79
2023/03/02 12:21:01;;;;;;;50.07;24.70;;;1.70;99.90;;;;;;4881492;29;20226;-80
2023/03/02 12:23:28;;;;;;;46.10;24.47;;;1.80;99.90;;;;;;4866168;29;20204;-80
2023/03/02 12:26:20;;;;;;;49.63;24.90;;;1.70;99.90;;;;;;4883112;29;20675;-81
2023/03/02 12:29:00;;;;;;;38.93;20.97;;;1.70;99.90;;;;;;4882913;29;20201;-80
2023/03/02 12:31:38;;;;;;;37.33;20.90;;;1.70;99.90;;;;;;4881278;29;20188;-80
2023/03/02 12:34:37;;;;;;;36.53;20.43;;;1.80;99.90;;;;;;4865971;29;20194;-80
2023/03/02 12:37:25;;;;;;;38.03;20.97;;;1.80;99.90;;;;;;4865904;29;20265;-81
2023/03/02 12:40:16;;;;;;;34.93;19.63;;;1.90;99.90;;;;;;4882580;29;20190;-81
2023/03/02 12:43:09;;;;;;;40.60;21.73;;;1.80;99.90;;;;;;4882566;29;20519;-79
2023/03/02 12:46:00;;;;;;;37.77;20.83;;;1.70;99.90;;;;;;4865437;29;20283;-79
2023/03/02 12:48:28;;;;;;;37.33;20.77;;;1.80;99.90;;;;;;4865130;29;20280;-80